Time;durP1;ratioP1;P1;durP2;ratioP2;P2;SDS_P1;SDS_P2;PMS_P1;PMS_P2;Temp;Humidity;BMP_temperature;BMP_pressure;BME280_temperature;BME280_humidity;BME280_pressure;Samples;Min_cycle;Max_cycle;Signal;HPM_P1;HPM_P2
2022/07/12 00:02:11;;;;;;;6.30;2.33;;;;;;;18.96;42.08;101021.47;4997008;28;20065;-83
2022/07/12 00:04:38;;;;;;;4.85;2.40;;;;;;;18.85;42.44;101022.13;5011687;28;20045;-88
2022/07/12 00:07:05;;;;;;;6.05;2.50;;;;;;;18.82;42.44;101019.78;4994505;28;20143;-84
2022/07/12 00:09:31;;;;;;;11.65;2.58;;;;;;;18.66;42.53;101005.50;4994011;28;20057;-86
2022/07/12 00:11:57;;;;;;;;;;;;;;;18.72;42.78;101022.88;4981163;28;20037;-85
2022/07/12 00:14:24;;;;;;;6.53;2.80;;;;;;;18.70;43.38;101033.97;4985083;28;19921;-84
2022/07/12 00:16:49;;;;;;;4.68;2.88;;;;;;;18.64;42.65;101029.38;4981030;28;20524;-87
2022/07/12 00:19:15;;;;;;;;;;;;;;;18.67;42.86;101031.66;4979312;28;20061;-85
2022/07/12 00:21:41;;;;;;;7.45;2.95;;;;;;;18.69;42.86;101029.59;4987500;28;19917;-85
2022/07/12 00:24:09;;;;;;;7.32;3.25;;;;;;;18.71;42.79;101030.22;5012072;28;20029;-84
2022/07/12 00:26:36;;;;;;;7.70;3.08;;;;;;;18.65;43.57;101025.59;4993217;28;20045;-85
2022/07/12 00:29:06;;;;;;;8.02;3.00;;;;;;;18.70;43.34;101033.97;5017853;28;20508;-85
2022/07/12 00:31:39;;;;;;;7.28;3.10;;;;;;;18.61;43.04;101029.75;4991525;28;20054;-84
2022/07/12 00:34:10;;;;;;;8.68;3.30;;;;;;;18.71;43.26;101035.66;5008951;28;20042;-86
2022/07/12 00:36:36;;;;;;;7.93;3.03;;;;;;;18.80;43.04;101033.63;4988374;28;20041;-85
2022/07/12 00:39:03;;;;;;;4.65;3.30;;;;;;;18.74;43.82;101018.06;4990759;28;20137;-85
2022/07/12 00:41:28;;;;;;;7.25;2.90;;;;;;;18.76;43.19;101027.75;5003725;28;20041;-86
2022/07/12 00:43:55;;;;;;;;;;;;;;;18.82;43.32;101036.13;4988868;28;20081;-86
2022/07/12 00:46:25;;;;;;;9.43;3.05;;;;;;;18.73;43.36;101033.59;4991426;28;19983;-84
2022/07/12 00:48:52;;;;;;;5.28;2.72;;;;;;;18.77;43.39;101029.41;5006695;28;20045;-84
2022/07/12 00:51:20;;;;;;;7.93;3.30;;;;;;;18.72;44.10;101020.16;4979796;28;20041;-84
2022/07/12 00:53:45;;;;;;;9.02;3.90;;;;;;;18.79;43.46;101036.56;4999725;28;20050;-85
2022/07/12 00:56:11;;;;;;;;;;;;;;;18.70;43.59;101038.59;5006804;28;20785;-86
2022/07/12 00:58:37;;;;;;;16.50;4.40;;;;;;;18.64;43.96;101033.97;5002517;28;19952;-86
2022/07/12 01:01:07;;;;;;;14.52;4.35;;;;;;;18.58;44.23;101032.91;5034952;28;20029;-85
2022/07/12 01:03:33;;;;;;;8.73;4.13;;;;;;;18.43;44.65;101010.44;5045786;28;20128;-86
2022/07/12 01:05:59;;;;;;;14.70;4.15;;;;;;;18.48;45.65;101030.56;5015229;28;20059;-84
2022/07/12 01:08:24;;;;;;;;;;;;;;;18.42;46.20;101033.25;5012030;28;20071;-83
2022/07/12 01:10:50;;;;;;;12.90;3.95;;;;;;;18.28;46.80;101035.09;4995296;28;19912;-85
2022/07/12 01:13:16;;;;;;;;;;;;;;;18.24;47.33;101039.25;5002083;28;20030;-86
2022/07/12 01:15:42;;;;;;;10.40;4.28;;;;;;;18.14;47.59;101034.16;5042840;28;19932;-86
2022/07/12 01:18:07;;;;;;;;;;;;;;;18.09;47.95;101042.94;5007064;28;20044;-86
2022/07/12 01:20:32;;;;;;;;;;;;;;;17.97;48.53;101041.00;5054697;28;19913;-86
2022/07/12 01:22:59;;;;;;;11.57;4.30;;;;;;;17.95;48.47;101045.78;5034945;28;20369;-87
2022/07/12 01:25:25;;;;;;;10.82;4.38;;;;;;;17.90;48.19;101043.69;5020222;28;20481;-85
2022/07/12 01:27:50;;;;;;;;;;;;;;;17.99;47.76;101039.75;5026224;28;20040;-84
2022/07/12 01:30:16;;;;;;;13.25;4.20;;;;;;;17.87;47.83;101036.75;5053248;28;19913;-85
2022/07/12 01:32:41;;;;;;;;;;;;;;;17.96;47.72;101042.03;5024708;28;20461;-85
2022/07/12 01:35:07;;;;;;;;;;;;;;;17.88;47.88;101043.03;5039966;28;21375;-84
2022/07/12 01:37:36;;;;;;;;;;;;;;;17.88;48.00;101041.16;5026956;28;19974;-85
2022/07/12 01:40:02;;;;;;;;;;;;;;;18.05;47.61;101036.25;5016574;28;20009;-86
2022/07/12 01:42:28;;;;;;;;;;;;;;;18.12;48.01;101038.97;5035329;28;19932;-86
2022/07/12 01:44:54;;;;;;;;;;;;;;;18.13;47.63;101032.50;5019211;28;20021;-85
2022/07/12 01:47:23;;;;;;;;;;;;;;;18.13;47.54;101037.94;5036191;28;20388;-84
2022/07/12 01:49:49;;;;;;;;;;;;;;;18.24;47.41;101034.66;5055637;28;19904;-84
2022/07/12 01:52:14;;;;;;;;;;;;;;;18.21;47.70;101037.75;5035549;28;19916;-85
2022/07/12 01:54:42;;;;;;;;;;;;;;;18.22;47.55;101036.75;5036215;28;20008;-85
2022/07/12 01:57:08;;;;;;;;;;;;;;;18.20;47.94;101046.97;5036292;28;19963;-84
2022/07/12 01:59:33;;;;;;;;;;;;;;;18.24;47.73;101045.53;5034581;28;19912;-85
2022/07/12 02:01:58;;;;;;;;;;;;;;;18.21;48.05;101045.94;5016662;28;20000;-85
2022/07/12 02:04:24;;;;;;;;;;;;;;;18.23;47.74;101045.75;5016628;28;20199;-84
2022/07/12 02:06:49;;;;;;;;;;;;;;;18.29;47.62;101036.78;5032697;28;19913;-84
2022/07/12 02:09:15;;;;;;;;;;;;;;;18.29;47.85;101043.06;5034564;28;19916;-85
2022/07/12 02:11:41;;;;;;;;;;;;;;;18.34;47.33;101034.28;5015180;28;20034;-86
2022/07/12 02:14:07;;;;;;;;;;;;;;;18.28;47.37;101046.81;5016028;28;19909;-85
2022/07/12 02:16:32;;;;;;;;;;;;;;;18.19;47.40;101044.44;5035892;28;19993;-84
2022/07/12 02:18:58;;;;;;;;;;;;;;;18.14;47.77;101045.06;5027669;28;19909;-86
2022/07/12 02:21:23;;;;;;;;;;;;;;;18.12;47.97;101047.13;5033414;28;20030;-84
2022/07/12 02:23:48;;;;;;;;;;;;;;;18.17;47.42;101041.97;5016483;28;19913;-84
2022/07/12 02:26:15;;;;;;;;;;;;;;;18.06;48.00;101050.69;5033392;28;20022;-84
2022/07/12 02:28:40;;;;;;;;;;;;;;;18.03;48.17;101045.66;4999528;28;19913;-85
2022/07/12 02:31:05;;;;;;;;;;;;;;;18.12;47.83;101044.41;5035971;28;19920;-85
2022/07/12 02:33:31;;;;;;;;;;;;;;;18.19;47.55;101042.59;5015912;28;19905;-86
2022/07/12 02:35:56;;;;;;;;;;;;;;;18.09;48.64;101059.25;5030876;28;19962;-85
2022/07/12 02:38:21;;;;;;;;;;;;;;;18.05;48.11;101049.84;5020811;28;20447;-85
2022/07/12 02:40:55;;;;;;;;;;;;;;;18.08;48.29;101056.75;5032825;28;19913;-83
2022/07/12 02:43:20;;;;;;;;;;;;;;;18.17;48.42;101047.41;5028516;28;19909;-86
2022/07/12 02:45:50;;;;;;;;;;;;;;;18.11;48.15;101043.59;5034740;28;19919;-86
2022/07/12 02:48:15;;;;;;;;;;;;;;;18.07;47.97;101057.78;5033476;28;19995;-86
2022/07/12 02:50:40;;;;;;;;;;;;;;;18.14;47.60;101055.94;5015763;28;19998;-86
2022/07/12 02:53:06;;;;;;;;;;;;;;;18.17;47.65;101052.84;5019222;28;19909;-84
2022/07/12 02:55:31;;;;;;;;;;;;;;;18.16;47.52;101053.88;5003033;28;19932;-86
2022/07/12 02:57:57;;;;;;;;;;;;;;;18.17;47.34;101050.13;5016932;28;19909;-87
2022/07/12 03:00:22;;;;;;;;;;;;;;;18.21;47.13;101056.81;5037729;28;20004;-85
2022/07/12 03:02:47;;;;;;;;;;;;;;;18.16;47.09;101063.91;5034897;28;19909;-86
2022/07/12 03:05:13;;;;;;;;;;;;;;;18.19;47.28;101063.50;5025704;28;19912;-86
2022/07/12 03:07:38;;;;;;;;;;;;;;;18.18;47.05;101068.09;5015208;28;19956;-86
2022/07/12 03:10:04;;;;;;;;;;;;;;;18.26;47.08;101059.78;5044311;28;19925;-85
2022/07/12 03:12:29;;;;;;;;;;;;;;;18.27;47.83;101066.91;5045192;28;19920;-85
2022/07/12 03:14:55;;;;;;;;;;;;;;;18.18;47.37;101073.56;5039497;28;20011;-85
2022/07/12 03:17:20;;;;;;;;;;;;;;;18.33;46.79;101067.97;5053128;28;19916;-85
2022/07/12 03:19:47;;;;;;;;;;;;;;;18.23;46.61;101065.63;5037451;28;19998;-87
2022/07/12 03:22:12;;;;;;;;;;;;;;;18.44;46.46;101072.00;5056281;28;19913;-84
2022/07/12 03:24:37;;;;;;;;;;;;;;;18.47;45.84;101064.28;5025417;28;19916;-84
2022/07/12 03:27:03;;;;;;;;;;;;;;;18.51;45.61;101064.69;5052837;28;19919;-86
2022/07/12 03:29:28;;;;;;;;;;;;;;;18.52;45.69;101077.28;5052454;28;19934;-86
2022/07/12 03:31:54;;;;;;;;;;;;;;;18.61;45.24;101070.59;5032323;28;20163;-85
2022/07/12 03:34:19;;;;;;;;;;;;;;;18.65;45.08;101074.59;5034798;28;19912;-85
2022/07/12 03:36:45;;;;;;;;;;;;;;;18.69;45.65;101075.88;5016748;28;20295;-85
2022/07/12 03:39:11;;;;;;;;;;;;;;;18.79;44.61;101080.97;5033083;28;19916;-84
2022/07/12 03:41:36;;;;;;;;;;;;;;;18.90;44.56;101085.00;5034325;28;19916;-84
2022/07/12 03:44:01;;;;;;;;;;;;;;;19.02;44.17;101088.78;5016796;28;19915;-85
2022/07/12 03:46:27;;;;;;;;;;;;;;;19.03;44.01;101079.53;5051374;28;19966;-85
2022/07/12 03:48:52;;;;;;;;;;;;;;;19.07;44.19;101080.81;5052597;28;19967;-86
2022/07/12 03:51:17;;;;;;;;;;;;;;;19.15;43.60;101080.63;5016544;28;20298;-85
2022/07/12 03:53:43;;;;;;;;;;;;;;;19.33;43.35;101082.75;5034133;28;20050;-84
2022/07/12 03:56:08;;;;;;;;;;;;;;;19.33;43.20;101082.75;5050269;28;19924;-84
2022/07/12 03:58:33;;;;;;;;;;;;;;;19.36;43.06;101081.47;5051537;28;20392;-84
2022/07/12 04:00:58;;;;;;;;;;;;;;;19.44;42.36;101073.09;5013329;28;20011;-85
2022/07/12 04:03:24;;;;;;;;;;;;;;;19.42;42.63;101075.19;5031101;28;20262;-86
2022/07/12 04:05:49;;;;;;;;;;;;;;;19.29;42.55;101073.31;5031065;28;19959;-85
2022/07/12 04:08:16;;;;;;;;;;;;;;;19.44;42.33;101081.28;5032821;28;19997;-85
2022/07/12 04:10:41;;;;;;;;;;;;;;;19.52;42.34;101078.34;5031809;28;20032;-84
2022/07/12 04:13:07;;;;;;;;;;;;;;;19.72;41.94;101080.28;5029979;28;19956;-86
2022/07/12 04:15:32;;;;;;;;;;;;;;;19.75;41.82;101088.03;5030804;28;19925;-85
2022/07/12 04:17:57;;;;;;;;;;;;;;;20.05;41.21;101082.13;5028956;28;19905;-85
2022/07/12 04:20:23;;;;;;;;;;;;;;;20.37;40.80;101088.50;5029999;28;19928;-85
2022/07/12 04:22:48;;;;;;;;;;;;;;;20.18;40.60;101085.66;5030606;28;19948;-84
2022/07/12 04:25:13;;;;;;;;;;;;;;;20.11;41.08;101083.97;5029614;28;19913;-84
2022/07/12 04:27:40;;;;;;;;;;;;;;;20.55;40.26;101082.34;5034112;28;19921;-86
2022/07/12 04:30:07;;;;;;;;;;;;;;;21.04;39.50;101087.16;5024127;28;20408;-83
2022/07/12 04:32:33;;;;;;;;;;;;;;;21.12;39.14;101085.22;5040113;28;19908;-89
2022/07/12 04:35:04;;;;;;;;;;;;;;;21.39;38.71;101085.88;5034307;28;20334;-84
2022/07/12 04:37:31;;;;;;;;;;;;;;;21.42;38.64;101080.00;5015483;28;20277;-87
2022/07/12 04:39:58;;;;;;;;;;;;;;;21.46;38.40;101092.16;5030544;28;20000;-84
2022/07/12 04:42:23;;;;;;;;;;;;;;;21.81;37.82;101097.13;5014889;28;19960;-85
2022/07/12 04:44:48;;;;;;;;;;;;;;;22.10;36.78;101095.56;5018946;28;19920;-82
2022/07/12 04:47:14;;;;;;;;;;;;;;;22.28;36.52;101083.84;5032864;28;20294;-84
2022/07/12 04:49:47;;;;;;;;;;;;;;;22.39;36.44;101084.97;5016257;28;19985;-84
2022/07/12 04:52:14;;;;;;;;;;;;;;;22.86;35.09;101086.03;5026742;28;19912;-85
2022/07/12 04:54:40;;;;;;;;;;;;;;;22.80;35.32;101086.97;5023411;28;19920;-83
2022/07/12 04:57:06;;;;;;;;;;;;;;;22.84;35.69;101084.59;5023874;28;19913;-86
2022/07/12 04:59:34;;;;;;;;;;;;;;;23.15;35.31;101084.38;5028119;28;19931;-88
2022/07/12 05:01:59;;;;;;;;;;;;;;;23.16;34.62;101087.97;5048862;28;19952;-82
2022/07/12 05:04:30;;;;;;;;;;;;;;;22.77;34.64;101090.19;5032956;28;19948;-82
2022/07/12 05:06:58;;;;;;;;;;;;;;;23.05;33.81;101086.03;5043418;28;19917;-85
2022/07/12 05:09:24;;;;;;;;;;;;;;;23.05;33.86;101095.09;5023840;28;20360;-85
2022/07/12 05:11:49;;;;;;;;;;;;;;;22.97;33.55;101084.44;5048872;28;19913;-82
2022/07/12 05:14:16;;;;;;;;;;;;;;;22.65;33.96;101089.28;5033476;28;20230;-85
2022/07/12 05:16:41;;;;;;;;;;;;;;;22.71;33.83;101091.94;5048663;28;19917;-85
2022/07/12 05:19:08;;;;;;;;;;;;;;;22.63;33.83;101092.25;5049962;28;20066;-84
2022/07/12 05:21:35;;;;;;;;;;;;;;;22.70;33.62;101087.53;5049649;28;19916;-85
2022/07/12 05:24:03;;;;;;;;;;;;;;;22.53;33.65;101092.81;5034080;28;19916;-86
2022/07/12 05:26:33;;;;;;;;;;;;;;;22.82;33.43;101087.56;5032195;28;19916;-85
2022/07/12 05:28:59;;;;;;;;;;;;;;;22.60;33.85;101084.50;5042640;28;19939;-85
2022/07/12 05:31:26;;;;;;;;;;;;;;;22.66;33.54;101102.75;5043948;28;20380;-85
2022/07/12 05:33:52;;;;;;;;;;;;;;;22.94;33.31;101098.59;5029642;28;19920;-79
2022/07/12 05:36:20;;;;;;;;;;;;;;;22.44;33.99;101101.56;5049568;28;19909;-82
2022/07/12 05:38:47;;;;;;;;;;;;;;;22.45;34.06;101106.81;5049581;28;20365;-84
2022/07/12 05:41:12;;;;;;;;;;;;;;;22.27;34.21;101093.13;5031408;28;20023;-80
2022/07/12 05:43:38;;;;;;;;;;;;;;;22.28;34.53;101103.00;5031828;28;20015;-81
2022/07/12 05:46:04;;;;;;;;;;;;;;;22.31;34.59;101097.06;5021421;28;19917;-85
2022/07/12 05:48:29;;;;;;;;;;;;;;;22.27;35.21;101098.59;5031446;28;20006;-84
2022/07/12 05:50:54;;;;;;;;;;;;;;;22.43;34.92;101108.09;5032427;28;19920;-84
2022/07/12 05:53:24;;;;;;;;;;;;;;;22.57;34.46;101103.28;5032866;28;19964;-91
2022/07/12 05:55:51;;;;;;;;;;;;;;;22.50;34.32;101096.00;5027751;28;20394;-86
2022/07/12 05:58:18;;;;;;;;;;;;;;;22.55;34.81;101101.63;5031380;28;19921;-92
2022/07/12 06:00:46;;;;;;;;;;;;;;;22.68;34.42;101097.03;5032278;28;19931;-88
2022/07/12 06:03:14;;;;;;;;;;;;;;;22.45;34.74;101090.38;5024415;28;19920;-93
2022/07/12 06:05:42;;;;;;;;;;;;;;;22.78;34.50;101094.59;5012128;28;19916;-90
2022/07/12 06:08:11;;;;;;;;;;;;;;;23.24;34.00;101093.13;5041886;28;19919;-89
2022/07/12 06:10:36;;;;;;;;;;;;;;;23.60;33.37;101092.13;5021373;28;19917;-88
2022/07/12 06:13:02;;;;;;;;;;;;;;;23.56;32.65;101090.09;5034543;28;20364;-86
2022/07/12 06:15:32;;;;;;;;;;;;;;;23.60;32.45;101094.03;5037294;28;19983;-84
2022/07/12 06:18:02;;;;;;;;;;;;;;;23.76;32.78;101100.75;5338966;23;20016;-92
2022/07/12 06:20:27;;;;;;;;;;;;;;;24.03;32.63;101095.63;4987200;28;19917;-92
2022/07/12 06:23:08;;;;;;;;;;;;;;;24.25;31.99;101097.75;5006733;28;19996;-94
2022/07/12 06:25:41;;;;;;;;;;;;;;;24.72;31.77;101103.16;4984016;28;20000;-90
2022/07/12 06:28:10;;;;;;;;;;;;;;;25.27;30.26;101097.06;5006594;28;19910;-93
2022/07/12 06:30:38;;;;;;;;;;;;;;;25.64;29.58;101100.19;4998988;28;19920;-88
2022/07/12 06:33:07;;;;;;;;;;;;;;;25.81;29.33;101094.66;5029930;28;20020;-91
2022/07/12 06:35:38;;;;;;;;;;;;;;;26.25;29.10;101093.94;5014280;28;20396;-91
2022/07/12 06:38:04;;;;;;;;;;;;;;;26.39;28.71;101097.16;5038703;28;19905;-91
2022/07/12 06:40:35;;;;;;;;;;;;;;;26.56;28.30;101100.69;5020066;28;19927;-88
2022/07/12 06:43:02;;;;;;;;;;;;;;;26.83;28.31;101102.66;5013030;28;19905;-87
2022/07/12 06:45:28;;;;;;;;;;;;;;;27.13;27.76;101091.94;4996873;28;20080;-90
2022/07/12 06:47:53;;;;;;;;;;;;;;;26.77;27.76;101093.50;5020289;28;19935;-91
2022/07/12 06:50:20;;;;;;;;;;;;;;;27.10;27.17;101100.75;5025411;28;19913;-90
2022/07/12 06:52:49;;;;;;;;;;;;;;;27.21;27.26;101087.09;5013197;28;19921;-91
2022/07/12 06:55:15;;;;;;;;;;;;;;;27.56;27.14;101081.88;5019288;28;19917;-90
2022/07/12 06:57:48;;;;;;;;;;;;;;;27.71;26.75;101083.06;4991301;28;19916;-93
2022/07/12 07:00:21;;;;;;;;;;;;;;;27.78;26.25;101084.50;5023209;28;19916;-91
2022/07/12 07:02:51;;;;;;;;;;;;;;;27.89;26.28;101079.91;5027306;28;19916;-90
2022/07/12 07:05:19;;;;;;;;;;;;;;;27.52;26.04;101089.00;5027489;28;19913;-96
2022/07/12 07:07:47;;;;;;;;;;;;;;;27.72;26.26;101081.97;5014257;28;19928;-96
2022/07/12 07:10:25;;;;;;;;;;;;;;;27.80;26.24;101075.97;5027442;28;19999;-93
2022/07/12 07:12:58;;;;;;;;;;;;;;;27.85;26.07;101072.44;5012924;28;19996;-95
2022/07/12 07:15:46;;;;;;;;;;;;;;;27.98;25.83;101064.50;5020738;28;19917;-94
2022/07/12 07:18:12;;;;;;;;;;;;;;;27.90;26.10;101069.69;5031972;28;20047;-94
2022/07/12 07:20:41;;;;;;;;;;;;;;;28.02;25.29;101066.72;5020386;28;19943;-91
2022/07/12 07:23:10;;;;;;;;;;;;;;;28.35;25.25;101071.03;5019713;28;19975;-94
2022/07/12 07:25:43;;;;;;;;;;;;;;;28.54;24.68;101068.63;5036704;28;19913;-93
2022/07/12 07:28:16;;;;;;;;;;;;;;;28.73;24.41;101072.59;5045024;28;19919;-93
2022/07/12 07:30:53;;;;;;;;;;;;;;;28.81;23.96;101060.97;5023284;28;20325;-92
2022/07/12 07:33:19;;;;;;;;;;;;;;;29.00;23.76;101068.75;5038718;28;19920;-93
2022/07/12 07:35:46;;;;;;;;;;;;;;;29.27;23.51;101059.41;5059713;28;19972;-92
2022/07/12 07:38:17;;;;;;;;;;;;;;;29.26;23.92;101064.09;5036094;28;20021;-90
2022/07/12 07:40:45;;;;;;;;;;;;;;;29.09;23.59;101069.09;5055273;28;19928;-93
2022/07/12 07:43:11;;;;;;;;;;;;;;;29.34;23.71;101065.50;5035874;28;20358;-92
2022/07/12 07:45:39;;;;;;;;;;;;;;;29.29;23.61;101062.72;5011104;28;19962;-94
2022/07/12 07:48:08;;;;;;;;;;;;;;;29.51;23.24;101071.59;5027127;28;19917;-94
2022/07/12 07:50:34;;;;;;;;;;;;;;;29.13;23.70;101067.44;5052028;28;19903;-93
2022/07/12 07:53:04;;;;;;;;;;;;;;;29.37;23.34;101070.50;5058355;28;19913;-94
2022/07/12 07:55:31;;;;;;;;;;;;;;;29.76;23.06;101069.91;5036324;28;19925;-91
2022/07/12 07:57:59;;;;;;;;;;;;;;;30.06;22.43;101071.78;5028094;28;20265;-93
2022/07/12 08:00:27;;;;;;;;;;;;;;;30.00;22.88;101065.44;5032644;28;20020;-92
2022/07/12 08:02:54;;;;;;;;;;;;;;;29.97;22.74;101060.47;5046221;28;20054;-84
2022/07/12 08:05:21;;;;;;;;;;;;;;;30.55;22.31;101068.28;5043279;28;20023;-93
2022/07/12 08:07:47;;;;;;;;;;;;;;;30.78;21.85;101071.50;5031273;28;19913;-86
2022/07/12 08:10:15;;;;;;;;;;;;;;;31.01;21.26;101076.38;5017778;28;19917;-87
2022/07/12 08:12:40;;;;;;;;;;;;;;;30.87;21.77;101076.19;5028378;28;19917;-85
2022/07/12 08:15:06;;;;;;;;;;;;;;;31.44;21.06;101064.69;5015103;28;19919;-89
2022/07/12 08:17:32;;;;;;;;;;;;;;;31.22;21.09;101076.25;5035780;28;20369;-85
2022/07/12 08:19:58;;;;;;;;;;;;;;;31.12;20.60;101066.03;5035744;28;20016;-86
2022/07/12 08:22:23;;;;;;;;;;;;;;;31.16;21.03;101067.09;5019983;28;19969;-88
2022/07/12 08:24:49;;;;;;;;;;;;;;;31.30;21.11;101059.78;4996905;28;20313;-85
2022/07/12 08:27:15;;;;;;;;;;;;;;;31.01;21.53;101075.56;5033824;28;20358;-82
2022/07/12 08:29:40;;;;;;;;;;;;;;;31.63;19.96;101057.31;5019076;28;19963;-84
2022/07/12 08:32:07;;;;;;;;;;;;;;;31.73;20.02;101054.41;5036288;28;19912;-83
2022/07/12 08:34:32;;;;;;;;;;;;;;;32.04;19.65;101054.09;5014027;28;20099;-84
2022/07/12 08:36:58;;;;;;;;;;;;;;;32.39;19.98;101049.22;5020198;28;20004;-83
2022/07/12 08:39:23;;;;;;;;;;;;;;;32.59;19.53;101054.56;4996916;28;20451;-85
2022/07/12 08:41:48;;;;;;;;;;;;;;;32.97;19.15;101054.53;5019581;28;20419;-86
2022/07/12 08:44:14;;;;;;;;;;;;;;;32.93;19.27;101059.06;5031860;28;19913;-84
2022/07/12 08:46:39;;;;;;;;;;;;;;;33.78;18.63;101061.84;5037179;28;20004;-81
2022/07/12 08:49:06;;;;;;;;;;;;;;;33.66;17.71;101056.78;5031985;28;19916;-86
2022/07/12 08:51:31;;;;;;;;;;;;;;;33.74;17.68;101056.09;5020740;28;19935;-84
2022/07/12 08:54:06;;;;;;;;;;;;;;;34.46;17.37;101049.06;5015470;28;19912;-83
2022/07/12 08:56:33;;;;;;;;;;;;;;;33.91;17.71;101049.88;5017792;28;19979;-82
2022/07/12 08:59:16;;;;;;;;;;;;;;;34.50;17.59;101046.47;5033291;28;19905;-85
2022/07/12 09:01:50;;;;;;;;;;;;;;;34.65;16.98;101047.00;5016530;28;20008;-85
2022/07/12 09:04:19;;;;;;;;;;;;;;;34.15;18.01;101048.88;5045764;28;19932;-84
2022/07/12 09:06:52;;;;;;;;;;;;;;;33.58;17.98;101038.00;5029876;28;19964;-87
2022/07/12 09:09:29;;;;;;;;;;;;;;;33.09;18.54;101039.38;5044710;28;19927;-88
2022/07/12 09:11:54;;;;;;;;;;;;;;;32.62;18.55;101043.94;5038277;28;19917;-84
2022/07/12 09:14:20;;;;;;;;;;;;;;;32.55;18.49;101044.31;4996689;28;20004;-84
2022/07/12 09:16:57;;;;;;;;;;;;;;;33.82;18.23;101046.16;5017678;28;19920;-85
2022/07/12 09:19:23;;;;;;;;;;;;;;;34.93;17.28;101029.31;5033433;28;19913;-84
2022/07/12 09:21:52;;;;;;;;;;;;;;;35.25;16.61;101031.06;5002434;28;19936;-85
2022/07/12 09:24:18;;;;;;;;;;;;;;;35.71;16.52;101027.06;4998202;28;19959;-84
2022/07/12 09:26:44;;;;;;;;;;;;;;;36.32;15.86;101035.69;5016487;28;19960;-90
2022/07/12 09:29:10;;;;;;;;;;;;;;;36.44;15.91;101035.03;5029504;28;19913;-86
2022/07/12 09:31:39;;;;;;;;;;;;;;;37.41;14.74;101037.50;5021563;28;19913;-87
2022/07/12 09:36:58;;;;;;;;;;;;;;;38.76;13.33;101030.25;5025131;28;19919;-87
2022/07/12 09:39:26;;;;;;;;;;;;;;;38.16;13.94;101035.09;5013938;28;19913;-87
2022/07/12 09:41:53;;;;;;;;;;;;;;;37.83;14.20;101023.69;5005978;28;19927;-87
2022/07/12 09:44:19;;;;;;;;;;;;;;;36.59;14.65;101017.78;5003210;28;19909;-87
2022/07/12 09:46:48;;;;;;;;;;;;;;;35.81;15.80;101020.34;5019581;28;20023;-87
2022/07/12 09:49:13;;;;;;;;;;;;;;;36.42;15.65;101028.94;5007564;28;19991;-87
2022/07/12 09:51:39;;;;;;;;;;;;;;;35.66;15.94;101030.81;5004231;28;19932;-87
2022/07/12 09:54:07;;;;;;;;;;;;;;;35.12;16.18;101026.34;5035425;28;21632;-85
2022/07/12 09:56:32;;;;;;;;;;;;;;;34.96;16.73;101023.91;5006967;28;19919;-87
2022/07/12 09:58:58;;;;;;;;;;;;;;;36.33;16.21;101014.94;5015702;28;19996;-88
2022/07/12 10:01:24;;;;;;;;;;;;;;;37.63;14.82;101028.09;5024061;28;19920;-88
2022/07/12 10:03:50;;;;;;;;;;;;;;;38.03;13.39;101021.34;5020018;28;19912;-92
2022/07/12 10:06:16;;;;;;;;;;;;;;;39.10;12.44;101019.88;5024488;28;19927;-94
2022/07/12 10:08:41;;;;;;;;;;;;;;;39.65;11.88;101007.38;5020543;28;20312;-91
2022/07/12 10:11:07;;;;;;;;;;;;;;;40.92;11.53;101010.97;5011346;28;19924;-95
2022/07/12 10:13:32;;;;;;;;;;;;;;;41.09;11.35;101000.53;5028046;28;20012;-92
2022/07/12 10:15:58;;;;;;;;;;;;;;;41.63;11.29;101004.84;5023025;28;19913;-87
2022/07/12 10:18:26;;;;;;;;;;;;;;;41.33;11.23;101003.25;5020640;28;19913;-89
2022/07/12 10:20:51;;;;;;;;;;;;;;;41.61;11.10;100999.56;5041495;28;19999;-83
2022/07/12 10:23:25;;;;;;;;;;;;;;;40.03;12.52;101003.41;5042939;28;19960;-84
2022/07/12 10:25:51;;;;;;;;;;;;;;;37.96;13.85;100997.41;5034465;28;19920;-82
2022/07/12 10:28:16;;;;;;;;;;;;;;;39.03;13.20;100995.16;5011156;28;19909;-85
2022/07/12 10:30:48;;;;;;;;;;;;;;;39.42;13.01;100992.09;5025805;28;19913;-88
2022/07/12 10:33:14;;;;;;;;;;;;;;;39.93;12.62;100989.00;5027477;28;19912;-94
2022/07/12 10:35:40;;;;;;;;;;;;;;;38.63;13.77;100992.00;5038236;28;19913;-90
2022/07/12 10:38:11;;;;;;;;;;;;;;;38.09;13.98;100975.06;5023906;28;19905;-91
2022/07/12 10:40:38;;;;;;;;;;;;;;;38.48;13.87;100989.84;5031801;28;19969;-91
2022/07/12 10:43:04;;;;;;;;;;;;;;;37.53;14.91;100983.53;5002583;28;19909;-92
2022/07/12 10:45:58;;;;;;;;;;;;;;;36.69;16.08;100983.03;5039969;28;20384;-88
2022/07/12 10:48:24;;;;;;;;;;;;;;;36.97;16.11;100980.69;5015151;28;19944;-84
2022/07/12 10:50:55;;;;;;;;;;;;;;;35.89;16.91;100966.41;5002506;28;19917;-87
2022/07/12 10:53:21;;;;;;;;;;;;;;;36.95;16.22;100969.84;5020615;28;20013;-85
2022/07/12 10:56:06;;;;;;;;;;;;;;;36.60;16.20;100988.66;5024975;28;21292;-89
2022/07/12 10:58:32;;;;;;;;;;;;;;;35.54;17.01;100979.41;5057009;28;19931;-86
2022/07/12 11:00:57;;;;;;;;;;;;;;;35.62;17.15;100978.66;5011802;28;19917;-87
2022/07/12 11:03:23;;;;;;;;;;;;;;;35.69;17.63;100967.84;5022896;28;20421;-87
2022/07/12 11:05:49;;;;;;;;;;;;;;;35.25;17.88;100958.41;5022049;28;19913;-90
2022/07/12 11:08:15;;;;;;;;;;;;;;;33.71;19.80;100967.47;5028162;28;19956;-87
2022/07/12 11:10:40;;;;;;;;;;;;;;;33.93;19.07;100965.94;5005832;28;19913;-85
2022/07/12 11:13:35;;;;;;;;;;;;;;;33.89;18.98;100959.31;5013087;28;19963;-89
2022/07/12 11:16:00;;;;;;;;;;;;;;;32.82;19.96;100960.09;5021544;28;19913;-84
2022/07/12 11:18:29;;;;;;;;;;;;;;;32.85;20.05;100961.47;5009140;28;19936;-91
2022/07/12 11:20:56;;;;;;;;;;;;;;;32.46;20.83;100955.09;4989337;28;19942;-87
2022/07/12 11:23:21;;;;;;;;;;;;;;;32.95;20.61;100962.13;5001960;28;19913;-88
2022/07/12 11:25:47;;;;;;;;;;;;;;;31.85;21.30;100951.16;5002203;28;19912;-82
2022/07/12 11:28:12;;;;;;;;;;;;;;;31.45;21.69;100944.13;5040237;28;20365;-81
2022/07/12 11:30:39;;;;;;;;;;;;;;;31.94;21.71;100938.25;5015638;28;19941;-79
2022/07/12 11:33:04;;;;;;;;;;;;;;;31.18;22.76;100948.25;4997937;28;20361;-81
2022/07/12 11:35:29;;;;;;;;;;;;;;;31.21;22.61;100953.22;5000067;28;19913;-86
2022/07/12 11:37:55;;;;;;;;;;;;;;;31.05;22.58;100963.66;5033721;28;19916;-82
2022/07/12 11:40:21;;;;;;;;;;;;;;;30.83;23.06;100952.94;5013553;28;19913;-82
2022/07/12 11:42:55;;;;;;;;;;;;;;;31.28;22.61;100938.97;5018526;28;19966;-81
2022/07/12 11:45:21;;;;;;;;;;;;;;;30.87;22.73;100954.06;5015020;28;20425;-82
2022/07/12 11:47:46;;;;;;;;;;;;;;;30.84;23.45;100954.66;5019177;28;19943;-82
2022/07/12 11:50:12;;;;;;;;;;;;;;;30.67;24.22;100965.28;5014428;28;20378;-82
2022/07/12 11:52:37;;;;;;;;;;;;;;;30.25;24.43;100969.41;5028549;28;20392;-82
2022/07/12 11:55:06;;;;;;;;;;;;;;;30.25;24.67;100974.94;5030826;28;19952;-81
2022/07/12 11:57:32;;;;;;;;;;;;;;;30.42;24.40;100969.09;4999654;28;20369;-82
2022/07/12 11:59:57;;;;;;;;;;;;;;;30.11;24.84;100962.81;5011829;28;19909;-81
2022/07/12 12:02:23;;;;;;;;;;;;;;;30.21;24.64;100962.78;5015773;28;19985;-81
2022/07/12 12:04:52;;;;;;;;;;;;;;;30.36;24.91;100959.94;5031725;28;19909;-82
2022/07/12 12:07:18;;;;;;;;;;;;;;;30.39;24.24;100967.72;5007202;28;19961;-82
2022/07/12 12:09:59;;;;;;;;;;;;;;;30.24;24.76;100965.81;5036888;28;19916;-84
2022/07/12 12:12:24;;;;;;;;;;;;;;;29.80;25.77;100974.03;5038706;28;19913;-82
2022/07/12 12:14:50;;;;;;;;;;;;;;;29.84;26.02;100964.06;5015469;28;19913;-81
2022/07/12 12:17:17;;;;;;;;;;;;;;;30.11;25.71;100965.59;5020650;28;19963;-81
2022/07/12 12:19:43;;;;;;;;;;;;;;;30.04;25.71;100958.44;4997404;28;19913;-81
2022/07/12 12:22:27;;;;;;;;;;;;;;;30.06;25.81;100961.75;5036907;28;19916;-82
2022/07/12 12:24:59;;;;;;;;;;;;;;;30.16;25.67;100957.28;5031129;28;19913;-85
2022/07/12 12:27:24;;;;;;;;;;;;;;;29.92;25.63;100960.69;5017850;28;20023;-80
2022/07/12 12:29:51;;;;;;;;;;;;;;;29.76;25.99;100951.63;5031595;28;19988;-82
2022/07/12 12:32:19;;;;;;;;;;;;;;;29.65;25.77;100947.19;5019348;28;19971;-82